Mansfield, IL (61854)

8:43 PM CDT on July 30, 2016 (GMT -0500)
Dale Valley Subdivision | | Change Station

Elev 781 ft 40.21 °N, 88.42 °W | Updated 22 seconds ago

Overcast
Overcast
73.6 °F
Feels Like 72 °F
N
0.0
Wind Variable Wind from SW
Gusts 0.0 mph

Today
High -- | Low -- °F
--% Chance of Precip.
Yesterday
High -- | Low -- °F
Precip. -- in
Pressure 29.94 in
Visibility 10.0 miles
Clouds Overcast 6000 ft
Heat Index 72 °F
Dew Point 70 °F
Humidity 89%
Rainfall 0.00 in
Snow Depth Not available.
5:50 AM 8:09 PM
Waning Crescent, 9% visible
METAR KCMI 310053Z 36004KT 10SM OVC060 23/20 A2995 RMK AO2 SLP136 T02330200
Pressure 29.94 in
Visibility 10.0 miles
Clouds Overcast 6000 ft
Heat Index 72 °F
Dew Point 70 °F
Humidity 89%
Rainfall 0.00 in
Snow Depth Not available.
5:50 AM 8:09 PM
Waning Crescent, 9% visible
METAR KCMI 310053Z 36004KT 10SM OVC060 23/20 A2995 RMK AO2 SLP136 T02330200

10-Day Weather Forecast

Almanac

Astronomy

Jul. 30, 2016 Rise Set
Actual Time
Civil Twilight
Nautical Twilight
Astronomical Twilight
Moon
Length of Visible Light
Length of Day
Tomorrow will be .
, % of the Moon is Illuminated

Today's Extremes

State Highs State Lows

Community

WunderPhotos

Upload Photos

1,928,702 photos uploaded!

WunderBlog® & News

Nearby

Air Quality

  Air Quality AQ Index Pollutant
Not available.

Snow Depth

Station Depth Elevation

Earthquake Activity

City Distance Mag. Time & Date
Minimum magnitude displayed is 2.5.

Coastal Water Temperatures

Place Temperature

Stations

Nearby Weather Stations

Station Location Temp. Windchill Dew Point Humidity Wind Precip. Elev Updated Type
                   

Watches & Warnings

There are currently no watches in effect.